Latest Coastal Weather Observations for Point Stuart

IDD60701

Issued at 1:11 am CST Tuesday 27 September 2016 (issued every 10 minutes, with the page automatically refreshed every 10 minutes)

About coastal observations | Map of coastal stations | Coastal observations for NT | Marine services | Other Formats
Station Details ID: 014254 Name: POINT STUART Lat: -12.24 Lon: 131.88 Height: 1.0 m
Data from the previous 72 hours. | See also: Recent months at Point Stuart
Date/Time
CST
Temp
°C
Wind Pressure Rain since
9am
mm
Weather Cloud Vis
km
Sea
Height
m
Swell
Dir  Spd
kts
Gust
kts
hPa Trend Height
m
Period
s
Dir
27/01:00am 27.2 NNW 4 5 1009.8 - 0.0 - - - - - - -
27/12:30am 27.4 NW 6 6 1010.0 - 0.0 - - - - - - -
27/12:00am 27.4 NNW 5 6 1010.1 - 0.0 - - - - - - -
 
Date/Time
CST
Temp
°C
Wind Pressure Rain since
9am
mm
Weather Cloud Vis
km
Sea
Height
m
Swell
Dir  Spd
kts
Gust
kts
hPa Trend Height
m
Period
s
Dir
26/11:30pm 27.7 N 3 4 1010.5 - 0.0 - - - - - - -
26/11:00pm 28.3 N 3 6 1010.5 - 0.0 - - - - - - -
26/10:30pm 28.6 N 2 5 1010.6 - 0.0 - - - - - - -
26/10:00pm 28.9 N 4 6 1010.4 - 0.0 - - - - - - -
26/09:30pm 29.0 N 4 7 1010.3 - 0.0 - - - - - - -
26/09:00pm 29.2 N 5 8 1010.0 - 0.0 - - - - - - -
26/08:30pm 29.4 NNE 5 8 1009.7 - 0.0 - - - - - - -
26/08:00pm 29.3 NNE 6 9 1009.3 - 0.0 - - - - - - -
26/07:30pm 29.5 N 4 6 1009.1 - 0.0 - - - - - - -
26/07:00pm 30.0 N 4 7 1008.7 - 0.0 - - - - - - -
26/06:30pm 30.9 N 4 6 1008.2 - 0.0 - - - - - - -
26/06:00pm 31.9 N 5 8 1007.8 - 0.0 - - - - - - -
26/05:30pm 32.4 N 5 9 1007.5 - 0.0 - - - - - - -
26/05:00pm 32.3 N 7 12 1007.3 - 0.0 - - - - - - -
26/04:30pm 32.6 N 7 12 1007.3 - 0.0 - - - - - - -
26/04:00pm 32.9 N 7 11 1007.3 - 0.0 - - - - - - -
26/03:30pm 32.4 N 8 13 1007.6 - 0.0 - - - - - - -
26/03:00pm 32.2 NNE 8 14 1007.7 - 0.0 - - - - - - -
26/02:30pm 32.4 N 8 14 1008.0 - 0.0 - - - - - - -
26/02:00pm 32.1 NNE 8 14 1008.4 - 0.0 - - - - - - -
26/01:30pm 32.1 NNE 10 19 1008.8 - 0.0 - - - - - - -
26/01:00pm 32.1 NE 10 17 1009.2 - 0.0 - - - - - - -
26/12:30pm 31.9 NE 12 16 1009.6 - 0.0 - - - - - - -
26/12:00pm 32.0 NE 12 16 1009.9 - 0.0 - - - - - - -
26/11:30am 31.6 NE 12 17 1010.3 - 0.0 - - - - - - -
26/11:00am 31.5 NE 11 15 1010.6 - 0.0 - - - - - - -
26/10:30am 31.2 NE 9 13 1010.9 - 0.0 - - - - - - -
26/10:00am 30.9 ENE 9 11 1011.2 - 0.0 - - - - - - -
26/09:30am 30.9 NE 6 9 1011.1 - 0.0 - - - - - - -
26/09:00am 30.0 ENE 4 7 1011.0 - 0.0 - - - - - - -
26/08:30am 29.0 NE 5 7 1010.8 - 0.0 - - - - - - -
26/08:00am 27.7 S 2 4 1010.5 - 0.0 - - - - - - -
26/07:30am 26.4 S 3 4 1010.4 - 0.0 - - - - - - -
26/07:00am 25.6 S 3 4 1009.9 - 0.0 - - - - - - -
26/06:30am 25.2 S 3 5 1009.2 - 0.0 - - - - - - -
26/06:00am 25.2 SSW 2 4 1008.9 - 0.0 - - - - - - -
26/05:30am 25.3 CALM 0 0 1008.7 - 0.0 - - - - - - -
26/05:00am 25.4 CALM 0 0 1008.6 - 0.0 - - - - - - -
26/04:30am 25.7 CALM 0 0 1008.4 - 0.0 - - - - - - -
26/04:00am 25.9 CALM 0 0 1008.6 - 0.0 - - - - - - -
26/03:30am 26.2 CALM 0 0 1008.4 - 0.0 - - - - - - -
26/03:00am 26.3 CALM 0 0 1008.4 - 0.0 - - - - - - -
26/02:30am 26.6 SW 1 3 1008.4 - 0.0 - - - - - - -
26/02:00am 26.7 WSW 4 5 1008.7 - 0.0 - - - - - - -
26/01:30am 27.1 SW 6 7 1009.0 - 0.0 - - - - - - -
26/01:00am 27.3 WSW 6 8 1009.1 - 0.0 - - - - - - -
26/12:30am 27.9 WSW 5 6 1009.4 - 0.0 - - - - - - -
26/12:00am 28.6 W 6 7 1009.6 - 0.0 - - - - - - -
 
Date/Time
CST
Temp
°C
Wind Pressure Rain since
9am
mm
Weather Cloud Vis
km
Sea
Height
m
Swell
Dir  Spd
kts
Gust
kts
hPa Trend Height
m
Period
s
Dir
25/11:30pm 29.0 W 9 13 1009.8 - 0.0 - - - - - - -
25/11:00pm 29.1 WNW 9 11 1009.9 - 0.0 - - - - - - -
25/10:30pm 29.1 WNW 8 11 1009.8 - 0.0 - - - - - - -
25/10:00pm 29.1 WNW 8 11 1009.6 - 0.0 - - - - - - -
25/09:30pm 29.4 WNW 9 12 1009.4 - 0.0 - - - - - - -
25/09:00pm 29.6 WNW 10 13 1009.0 - 0.0 - - - - - - -
25/08:30pm 29.5 NW 11 14 1008.6 - 0.0 - - - - - - -
25/08:00pm 29.5 NW 10 13 1008.2 - 0.0 - - - - - - -
25/07:30pm 29.5 NW 9 13 1007.7 - 0.0 - - - - - - -
25/07:00pm 29.7 NW 9 11 1007.4 - 0.0 - - - - - - -
25/06:30pm 30.2 NNW 7 12 1007.1 - 0.0 - - - - - - -
25/06:00pm 30.9 NNW 6 9 1007.0 - 0.0 - - - - - - -
25/05:30pm 31.3 NNW 7 11 1006.8 - 0.0 - - - - - - -
25/05:00pm 32.0 N 6 11 1006.6 - 0.0 - - - - - - -
25/04:30pm 31.8 N 7 12 1006.7 - 0.0 - - - - - - -
25/04:00pm 32.5 NNW 9 15 1006.7 - 0.0 - - - - - - -
25/03:30pm 32.8 NNW 9 14 1006.8 - 0.0 - - - - - - -
25/03:00pm 32.8 NNW 8 12 1006.8 - 0.0 - - - - - - -
25/02:30pm 33.0 NNW 8 13 1007.0 - 0.0 - - - - - - -
25/02:00pm 33.0 NNW 8 12 1007.4 - 0.0 - - - - - - -
25/01:30pm 33.3 NNW 9 13 1007.7 - 0.0 - - - - - - -
25/01:00pm 33.0 NNW 10 14 1008.1 - 0.0 - - - - - - -
25/12:30pm 32.9 NNW 8 13 1008.6 - 0.0 - - - - - - -
25/12:00pm 32.3 NNW 8 14 1009.2 - 0.0 - - - - - - -
25/11:30am 32.4 NW 9 13 1009.7 - 0.0 - - - - - - -
25/11:00am 31.9 NW 9 12 1010.1 - 0.0 - - - - - - -
25/10:30am 31.2 NW 9 11 1010.1 - 0.0 - - - - - - -
25/10:00am 30.8 NW 6 10 1010.3 - 0.0 - - - - - - -
25/09:30am 30.0 WNW 4 8 1010.2 - 0.0 - - - - - - -
25/09:00am 29.3 S 2 5 1010.2 - 0.0 - - - - - - -
25/08:30am 27.9 SSE 3 5 1010.1 - 0.0 - - - - - - -
25/08:00am 26.5 SE 4 5 1009.8 - 0.0 - - - - - - -
25/07:30am 25.4 E 4 5 1009.4 - 0.0 - - - - - - -
25/07:00am 23.9 SE 1 4 1008.9 - 0.0 - - - - - - -
25/06:30am 23.5 S 2 5 1008.5 - 0.0 - - - - - - -
25/06:00am 24.0 CALM 0 0 1008.1 - 0.0 - - - - - - -
25/05:30am 24.1 CALM 0 0 1008.1 - 0.0 - - - - - - -
25/05:00am 24.3 CALM 0 0 1007.7 - 0.0 - - - - - - -
25/04:30am 24.5 CALM 0 0 1007.8 - 0.0 - - - - - - -
25/04:00am 24.7 CALM 0 0 1008.0 - 0.0 - - - - - - -
25/03:30am 24.8 SSW 2 3 1008.0 - 0.0 - - - - - - -
25/03:00am 25.0 SSW 4 5 1008.0 - 0.0 - - - - - - -
25/02:30am 25.0 SSW 3 4 1008.1 - 0.0 - - - - - - -
25/02:00am 25.1 SW 3 5 1008.3 - 0.0 - - - - - - -
25/01:30am 25.8 CALM 0 0 1008.6 - 0.0 - - - - - - -
25/01:00am 25.9 CALM 0 0 1008.8 - 0.0 - - - - - - -
25/12:30am 26.2 SW 2 4 1008.9 - 0.0 - - - - - - -
25/12:00am 28.0 WNW 7 8 1009.0 - 0.0 - - - - - - -
 
Date/Time
CST
Temp
°C
Wind Pressure Rain since
9am
mm
Weather Cloud Vis
km
Sea
Height
m
Swell
Dir  Spd
kts
Gust
kts
hPa Trend Height
m
Period
s
Dir
24/11:30pm 28.0 NW 8 13 1009.3 - 0.0 - - - - - - -
24/11:00pm 28.0 NW 6 9 1009.5 - 0.0 - - - - - - -
24/10:30pm 27.9 NNW 7 9 1009.4 - 0.0 - - - - - - -
24/10:00pm 27.6 NNW 4 6 1009.0 - 0.0 - - - - - - -
24/09:30pm 27.5 NNW 4 5 1008.6 - 0.0 - - - - - - -
24/09:00pm 27.4 NNW 5 6 1008.3 - 0.0 - - - - - - -
24/08:30pm 27.7 NW 4 5 1007.9 - 0.0 - - - - - - -
24/08:00pm 28.1 NNW 2 4 1007.5 - 0.0 - - - - - - -
24/07:30pm 28.7 NNW 3 4 1007.2 - 0.0 - - - - - - -
24/07:00pm 29.4 NNW 3 4 1006.9 - 0.0 - - - - - - -
24/06:30pm 30.4 N 3 5 1006.6 - 0.0 - - - - - - -
24/06:00pm 31.1 N 4 6 1006.3 - 0.0 - - - - - - -
24/05:30pm 31.5 N 5 8 1006.1 - 0.0 - - - - - - -
24/05:00pm 31.5 N 6 9 1005.9 - 0.0 - - - - - - -
24/04:30pm 31.6 NNW 5 8 1006.0 - 0.0 - - - - - - -
24/04:00pm 31.4 NNW 6 10 1006.3 - 0.0 - - - - - - -
24/03:30pm 31.8 N 6 10 1006.4 - 0.0 - - - - - - -
24/03:00pm 31.8 N 7 13 1006.7 - 0.0 - - - - - - -
24/02:30pm 32.1 N 7 11 1007.2 - 0.0 - - - - - - -
24/02:00pm 31.9 N 8 13 1007.5 - 0.0 - - - - - - -
24/01:30pm 31.8 N 6 10 1008.1 - 0.0 - - - - - - -
24/01:00pm 31.7 N 6 9 1008.7 - 0.0 - - - - - - -
24/12:30pm 31.6 N 6 9 1009.4 - 0.0 - - - - - - -
24/12:00pm 31.2 NE 7 11 1010.0 - 0.0 - - - - - - -
24/11:30am 30.7 NNE 7 13 1010.5 - 0.0 - - - - - - -
24/11:00am 30.3 NNE 7 15 1011.0 - 0.0 - - - - - - -
24/10:30am 30.4 NE 8 13 1011.3 - 0.0 - - - - - - -
24/10:00am 29.7 E 6 8 1011.4 - 0.0 - - - - - - -
24/09:30am 29.3 E 6 9 1011.4 - 0.0 - - - - - - -
24/09:00am 28.5 E 5 7 1011.6 - 0.2 - - - - - - -
24/08:30am 27.6 SE 6 8 1011.3 - 0.2 - - - - - - -
24/08:00am 26.9 SE 4 6 1011.2 - 0.2 - - - - - - -
24/07:30am 25.9 SE 5 7 1010.7 - 0.2 - - - - - - -
24/07:00am 24.9 SE 6 8 1010.4 - 0.2 - - - - - - -
24/06:30am 25.2 CALM 0 0 1010.0 - 0.2 - - - - - - -
24/06:00am 25.1 CALM 0 0 1009.7 - 0.2 - - - - - - -
24/05:30am 25.4 CALM 0 0 1009.4 - 0.2 - - - - - - -
24/05:00am 25.7 SSW 3 4 1009.2 - 0.2 - - - - - - -
24/04:30am 25.7 CALM 0 0 1009.0 - 0.2 - - - - - - -
24/04:00am 25.8 N 2 3 1008.8 - 0.2 - - - - - - -
24/03:30am 26.3 N 3 4 1008.9 - 0.2 - - - - - - -
24/03:00am 26.7 N 3 4 1009.0 - 0.2 - - - - - - -
24/02:30am 27.0 NNW 2 6 1009.0 - 0.2 - - - - - - -
24/02:00am 27.2 NNW 4 7 1009.3 - 0.2 - - - - - - -
24/01:30am 27.3 NW 5 6 1009.5 - 0.2 - - - - - - -

Other Formats:

Comma delimited format used in spreadsheet applications
http://www.bom.gov.au/fwo/IDD60701/IDD60701.94127.axf

JavaScript Object Notation format (JSON) in row-major order
http://www.bom.gov.au/fwo/IDD60701/IDD60701.94127.json